Terminal Aerodrome Forecast
Issued by NWS Los Angeles, CA

Home | Current Version | Previous Version | Text Only | Print | Product List | Glossary On
Versions: 1 2 3 4 5 6 7 8 9 10 11 12 13 14 15 16 17 18 19 20 21 22 23 24 25 26 27 28 29
377
FTUS46 KLOX 281725
TAFSMX
TAF
KSMX 281725Z 2818/2918 30009KT P6SM SCT120 BKN250
      TEMPO 2820/2824 BKN150
     FM290300 VRB03KT P6SM BKN015
     FM290800 VRB03KT 5SM BR OVC007
     FM291100 VRB03KT 2SM BR OVC005
     FM291500 VRB03KT 5SM BR OVC008=

USA.gov is the U.S. government's official web portal to all federal, state and local government web resources and services.